createdAt,value
2023-05-12T00:03:55.258Z,8.60
2023-05-12T00:09:57.725Z,8.50
2023-05-12T00:16:00.334Z,8.50
2023-05-12T00:22:03.219Z,8.50
2023-05-12T00:28:05.833Z,8.40
2023-05-12T00:34:08.140Z,8.30
2023-05-12T00:40:10.577Z,8.30
2023-05-12T00:46:13.005Z,8.20
2023-05-12T00:52:15.336Z,8.10
2023-05-12T00:58:17.527Z,8.10
2023-05-12T01:04:19.860Z,8.10
2023-05-12T01:10:22.651Z,8.00
2023-05-12T01:16:32.568Z,7.90
2023-05-12T01:22:36.235Z,7.90
2023-05-12T01:28:41.440Z,7.90
2023-05-12T01:34:44.578Z,7.90
2023-05-12T01:40:47.429Z,7.90
2023-05-12T01:46:50.922Z,7.80
2023-05-12T01:52:53.282Z,7.70
2023-05-12T01:58:56.155Z,7.70
2023-05-12T02:04:58.639Z,7.60
2023-05-12T02:11:08.293Z,7.60
2023-05-12T02:17:11.140Z,7.50
2023-05-12T02:23:13.531Z,7.50
2023-05-12T02:29:15.933Z,7.40
2023-05-12T02:35:18.464Z,7.40
2023-05-12T02:41:20.713Z,7.40
2023-05-12T02:47:23.238Z,7.40
2023-05-12T02:53:27.343Z,7.40
2023-05-12T02:59:30.868Z,7.50
2023-05-12T03:05:33.228Z,7.70
2023-05-12T03:11:35.784Z,7.60
2023-05-12T03:17:38.524Z,7.80
2023-05-12T03:23:41.325Z,7.80
2023-05-12T03:29:43.582Z,7.90
2023-05-12T03:35:46.239Z,8.00
2023-05-12T03:41:48.667Z,8.20
2023-05-12T03:47:50.945Z,8.20
2023-05-12T03:53:53.376Z,8.30
2023-05-12T03:59:55.985Z,8.60
2023-05-12T04:06:01.603Z,8.70
2023-05-12T04:12:04.152Z,8.90
2023-05-12T04:18:06.532Z,9.00
2023-05-12T04:24:09.087Z,9.30
2023-05-12T04:30:13.569Z,9.70
2023-05-12T04:36:18.232Z,9.90
2023-05-12T04:42:21.034Z,9.70
2023-05-12T04:48:23.538Z,9.90
2023-05-12T04:54:25.911Z,10.00
2023-05-12T05:00:29.483Z,10.30
2023-05-12T05:06:32.186Z,10.80
2023-05-12T05:12:36.041Z,10.80
2023-05-12T05:18:38.695Z,10.80
2023-05-12T05:24:41.061Z,11.20
2023-05-12T05:30:43.325Z,11.50
2023-05-12T05:36:46.653Z,11.80
2023-05-12T05:42:49.129Z,12.00
2023-05-12T05:48:51.662Z,12.60
2023-05-12T05:54:54.750Z,12.90
2023-05-12T06:01:00.593Z,12.90
2023-05-12T06:07:03.055Z,13.50
2023-05-12T06:13:05.417Z,13.60
2023-05-12T06:19:08.377Z,14.10
2023-05-12T06:25:11.625Z,14.20
2023-05-12T06:31:13.938Z,14.40
2023-05-12T06:37:16.297Z,14.00
2023-05-12T06:43:18.528Z,14.00
2023-05-12T06:49:21.301Z,14.10
2023-05-12T06:55:24.286Z,14.30
2023-05-12T07:01:30.415Z,14.40
2023-05-12T07:07:32.709Z,15.00
2023-05-12T07:13:35.283Z,15.10
2023-05-12T07:19:40.091Z,14.90
2023-05-12T07:25:42.479Z,14.80
2023-05-12T07:31:44.883Z,15.10
2023-05-12T07:37:47.136Z,15.10
2023-05-12T07:43:49.228Z,15.10
2023-05-12T07:49:51.487Z,15.20
2023-05-12T07:55:53.759Z,15.60
2023-05-12T08:01:55.940Z,15.90
2023-05-12T08:07:58.292Z,16.00
2023-05-12T08:14:01.066Z,15.70
2023-05-12T08:20:07.216Z,16.10
2023-05-12T08:26:09.460Z,16.10
2023-05-12T08:32:12.212Z,15.80
2023-05-12T08:38:14.430Z,15.90
2023-05-12T08:44:18.925Z,15.90
2023-05-12T08:50:23.221Z,16.30
2023-05-12T09:02:44.761Z,16.70
2023-05-12T09:08:51.677Z,17.00
2023-05-12T09:15:05.545Z,16.80
2023-05-12T09:21:07.931Z,17.20
2023-05-12T09:27:11.155Z,17.80
2023-05-12T09:33:14.350Z,18.10
2023-05-12T09:39:18.368Z,18.20
2023-05-12T09:45:21.255Z,19.00
2023-05-12T09:51:24.703Z,19.10
2023-05-12T09:57:27.687Z,19.20
2023-05-12T10:03:31.145Z,18.90
2023-05-12T10:09:35.532Z,18.40
2023-05-12T10:15:38.088Z,18.10
2023-05-12T10:21:41.392Z,18.00
2023-05-12T10:27:44.789Z,18.20
2023-05-12T10:34:00.253Z,17.90
2023-05-12T10:40:05.316Z,17.50
2023-05-12T10:46:13.216Z,17.30
2023-05-12T10:52:20.664Z,17.60
2023-05-12T10:58:23.106Z,17.40
2023-05-12T11:04:36.832Z,17.10
2023-05-12T11:10:41.670Z,17.10
2023-05-12T11:16:47.162Z,17.30
2023-05-12T11:22:49.601Z,17.90
2023-05-12T11:28:51.864Z,18.30
2023-05-12T11:34:54.175Z,18.30
2023-05-12T11:40:56.536Z,18.40
2023-05-12T11:47:12.849Z,18.20
2023-05-12T11:53:19.063Z,17.80
2023-05-12T11:59:33.125Z,17.40
2023-05-12T12:05:35.629Z,17.20
2023-05-12T12:11:37.809Z,17.50
2023-05-12T12:17:40.846Z,17.90
2023-05-12T12:23:50.987Z,18.10
2023-05-12T12:29:54.340Z,18.10
2023-05-12T12:35:56.543Z,18.00
2023-05-12T12:41:59.299Z,17.80
2023-05-12T12:48:01.725Z,18.10
2023-05-12T12:54:04.069Z,18.00
2023-05-12T13:00:08.971Z,18.40
2023-05-12T13:06:11.379Z,18.30
2023-05-12T13:12:13.813Z,18.30
2023-05-12T13:18:16.254Z,18.30
2023-05-12T13:24:18.808Z,18.30
2023-05-12T13:30:22.925Z,18.30
2023-05-12T13:36:25.278Z,18.10
2023-05-12T13:42:27.731Z,18.30
2023-05-12T13:48:29.914Z,18.10
2023-05-12T13:54:32.329Z,18.30
2023-05-12T14:00:34.598Z,18.40
2023-05-12T14:06:36.771Z,18.40
2023-05-12T14:12:39.349Z,18.30
2023-05-12T14:18:43.475Z,18.20
2023-05-12T14:24:46.388Z,18.30
2023-05-12T14:30:49.495Z,18.40
2023-05-12T14:36:51.676Z,18.60
2023-05-12T14:42:54.484Z,18.40
2023-05-12T14:48:56.694Z,18.00
2023-05-12T14:54:58.938Z,18.00
2023-05-12T15:01:02.951Z,17.70
2023-05-12T15:07:06.381Z,17.60
2023-05-12T15:13:08.559Z,17.60
2023-05-12T15:19:10.867Z,17.70
2023-05-12T15:25:13.362Z,17.50
2023-05-12T15:31:16.013Z,17.50
2023-05-12T15:37:18.538Z,17.20
2023-05-12T15:43:20.709Z,17.30
2023-05-12T15:49:22.830Z,17.20
2023-05-12T15:55:25.118Z,17.00
2023-05-12T16:01:27.573Z,16.90
2023-05-12T16:07:31.443Z,16.90
2023-05-12T16:13:33.696Z,16.70
2023-05-12T16:19:36.275Z,16.60
2023-05-12T16:25:38.706Z,16.50
2023-05-12T16:31:41.151Z,16.40
2023-05-12T16:37:43.625Z,16.30
2023-05-12T16:43:46.710Z,16.30
2023-05-12T16:49:55.350Z,16.20
2023-05-12T16:55:58.352Z,16.10
2023-05-12T17:02:00.695Z,16.10
2023-05-12T17:08:03.014Z,16.00
2023-05-12T17:14:05.185Z,15.90
2023-05-12T17:20:08.288Z,15.80
2023-05-12T17:26:10.953Z,15.80
2023-05-12T17:32:13.539Z,15.70
2023-05-12T17:38:17.187Z,15.60
2023-05-12T17:44:19.427Z,15.60
2023-05-12T17:50:21.938Z,15.50
2023-05-12T17:56:24.973Z,15.50
2023-05-12T18:02:27.152Z,15.40
2023-05-12T18:08:29.363Z,15.40
2023-05-12T18:14:31.409Z,15.30
2023-05-12T18:20:33.855Z,15.20
2023-05-12T18:26:36.490Z,15.20
2023-05-12T18:32:38.871Z,15.10
2023-05-12T18:38:41.289Z,15.10
2023-05-12T18:44:43.601Z,15.10
2023-05-12T18:50:45.935Z,15.00
2023-05-12T18:56:48.401Z,15.00
2023-05-12T19:02:50.675Z,14.90
2023-05-12T19:08:52.769Z,14.90
2023-05-12T19:14:54.915Z,14.90
2023-05-12T19:20:57.144Z,14.80
2023-05-12T19:26:59.853Z,14.80
2023-05-12T19:33:02.470Z,14.80
2023-05-12T19:39:04.883Z,14.70
2023-05-12T19:45:07.404Z,14.70
2023-05-12T19:51:09.823Z,14.60
2023-05-12T19:57:12.028Z,14.60
2023-05-12T20:03:14.687Z,14.60
2023-05-12T20:09:17.146Z,14.50
2023-05-12T20:15:19.294Z,14.50
2023-05-12T20:21:21.915Z,14.40
2023-05-12T20:27:24.150Z,14.40
2023-05-12T20:33:27.045Z,14.30
2023-05-12T20:39:29.280Z,14.30
2023-05-12T20:45:31.525Z,14.20
2023-05-12T20:51:33.773Z,14.20
2023-05-12T20:57:36.198Z,14.10
2023-05-12T21:03:38.495Z,14.10
2023-05-12T21:09:40.820Z,14.00
2023-05-12T21:15:43.161Z,14.00
2023-05-12T21:21:45.497Z,13.90
2023-05-12T21:27:48.281Z,13.80
2023-05-12T21:33:50.808Z,13.70
2023-05-12T21:39:53.035Z,13.60
2023-05-12T21:45:55.384Z,13.50
2023-05-12T21:51:57.768Z,13.40
2023-05-12T21:57:59.895Z,13.40
2023-05-12T22:04:02.403Z,13.30
2023-05-12T22:10:05.958Z,13.20
2023-05-12T22:16:08.372Z,13.20
2023-05-12T22:22:10.724Z,13.10
2023-05-12T22:28:13.021Z,13.10
2023-05-12T22:34:15.510Z,13.00
2023-05-12T22:40:17.641Z,12.80
2023-05-12T22:46:20.116Z,12.70
2023-05-12T22:52:22.374Z,12.40
2023-05-12T22:58:24.511Z,12.20
2023-05-12T23:04:26.819Z,12.10
2023-05-12T23:10:29.272Z,12.00
2023-05-12T23:16:31.491Z,11.90
2023-05-12T23:22:34.229Z,11.80
2023-05-12T23:28:36.725Z,11.70
2023-05-12T23:34:40.802Z,11.50
2023-05-12T23:40:42.971Z,11.40
2023-05-12T23:46:45.207Z,11.20
2023-05-12T23:52:47.647Z,11.20
2023-05-12T23:58:49.940Z,11.20
